sensor_id;sensor_type;location;lat;lon;timestamp;P1;P2;P0
39955;PMS5003;25631;51.516;-0.470;2023-05-24T00:00:44;2;2;
39955;PMS5003;25631;51.516;-0.470;2023-05-24T00:03:20;2;2;
39955;PMS5003;25631;51.516;-0.470;2023-05-24T00:05:57;3;3;
39955;PMS5003;25631;51.516;-0.470;2023-05-24T00:08:34;5;5;
39955;PMS5003;25631;51.516;-0.470;2023-05-24T00:11:10;5;5;
39955;PMS5003;25631;51.516;-0.470;2023-05-24T00:13:48;4;4;
39955;PMS5003;25631;51.516;-0.470;2023-05-24T00:16:24;3;3;
39955;PMS5003;25631;51.516;-0.470;2023-05-24T00:19:01;2;2;
39955;PMS5003;25631;51.516;-0.470;2023-05-24T00:21:37;3;3;
39955;PMS5003;25631;51.516;-0.470;2023-05-24T00:24:14;5;5;
39955;PMS5003;25631;51.516;-0.470;2023-05-24T00:26:50;3;3;
39955;PMS5003;25631;51.516;-0.470;2023-05-24T00:29:27;4;4;
39955;PMS5003;25631;51.516;-0.470;2023-05-24T00:32:04;4;4;
39955;PMS5003;25631;51.516;-0.470;2023-05-24T00:34:41;5;5;
39955;PMS5003;25631;51.516;-0.470;2023-05-24T00:37:18;4;4;
39955;PMS5003;25631;51.516;-0.470;2023-05-24T00:39:54;4;4;
39955;PMS5003;25631;51.516;-0.470;2023-05-24T00:42:31;5;5;
39955;PMS5003;25631;51.516;-0.470;2023-05-24T00:45:09;4;4;
39955;PMS5003;25631;51.516;-0.470;2023-05-24T00:47:45;6;6;
39955;PMS5003;25631;51.516;-0.470;2023-05-24T00:50:22;8;6;
39955;PMS5003;25631;51.516;-0.470;2023-05-24T00:52:59;7;6;
39955;PMS5003;25631;51.516;-0.470;2023-05-24T00:55:37;5;5;
39955;PMS5003;25631;51.516;-0.470;2023-05-24T00:58:14;6;6;
39955;PMS5003;25631;51.516;-0.470;2023-05-24T01:00:51;6;6;
39955;PMS5003;25631;51.516;-0.470;2023-05-24T01:03:30;5;5;
39955;PMS5003;25631;51.516;-0.470;2023-05-24T01:06:07;6;6;
39955;PMS5003;25631;51.516;-0.470;2023-05-24T01:08:49;6;6;
39955;PMS5003;25631;51.516;-0.470;2023-05-24T01:11:40;6;6;
39955;PMS5003;25631;51.516;-0.470;2023-05-24T01:14:28;6;6;
39955;PMS5003;25631;51.516;-0.470;2023-05-24T01:17:12;5;5;
39955;PMS5003;25631;51.516;-0.470;2023-05-24T01:19:55;4;4;
39955;PMS5003;25631;51.516;-0.470;2023-05-24T01:22:39;8;8;
39955;PMS5003;25631;51.516;-0.470;2023-05-24T01:25:38;9;9;
39955;PMS5003;25631;51.516;-0.470;2023-05-24T01:28:21;10;10;
39955;PMS5003;25631;51.516;-0.470;2023-05-24T01:30:59;8;7;
39955;PMS5003;25631;51.516;-0.470;2023-05-24T01:33:39;8;8;
39955;PMS5003;25631;51.516;-0.470;2023-05-24T01:36:17;10;10;
39955;PMS5003;25631;51.516;-0.470;2023-05-24T01:38:54;9;9;
39955;PMS5003;25631;51.516;-0.470;2023-05-24T01:41:33;8;8;
39955;PMS5003;25631;51.516;-0.470;2023-05-24T01:44:17;10;10;
39955;PMS5003;25631;51.516;-0.470;2023-05-24T01:47:03;10;10;
39955;PMS5003;25631;51.516;-0.470;2023-05-24T01:49:49;13;12;
39955;PMS5003;25631;51.516;-0.470;2023-05-24T01:52:30;12;11;
39955;PMS5003;25631;51.516;-0.470;2023-05-24T01:55:10;11;10;
39955;PMS5003;25631;51.516;-0.470;2023-05-24T01:57:49;12;12;
39955;PMS5003;25631;51.516;-0.470;2023-05-24T02:00:28;12;12;
39955;PMS5003;25631;51.516;-0.470;2023-05-24T02:03:06;15;14;
39955;PMS5003;25631;51.516;-0.470;2023-05-24T02:05:43;14;14;
39955;PMS5003;25631;51.516;-0.470;2023-05-24T02:08:20;15;14;
39955;PMS5003;25631;51.516;-0.470;2023-05-24T02:10:56;9;8;
39955;PMS5003;25631;51.516;-0.470;2023-05-24T02:13:33;10;9;
39955;PMS5003;25631;51.516;-0.470;2023-05-24T02:16:09;12;12;
39955;PMS5003;25631;51.516;-0.470;2023-05-24T02:18:46;12;12;
39955;PMS5003;25631;51.516;-0.470;2023-05-24T02:21:22;13;13;
39955;PMS5003;25631;51.516;-0.470;2023-05-24T02:23:59;11;11;
39955;PMS5003;25631;51.516;-0.470;2023-05-24T02:26:35;11;10;
39955;PMS5003;25631;51.516;-0.470;2023-05-24T02:29:12;13;12;
39955;PMS5003;25631;51.516;-0.470;2023-05-24T02:31:48;12;12;
39955;PMS5003;25631;51.516;-0.470;2023-05-24T02:34:25;12;11;
39955;PMS5003;25631;51.516;-0.470;2023-05-24T02:37:01;11;11;
39955;PMS5003;25631;51.516;-0.470;2023-05-24T02:39:38;11;11;
39955;PMS5003;25631;51.516;-0.470;2023-05-24T02:42:14;11;11;
39955;PMS5003;25631;51.516;-0.470;2023-05-24T02:44:51;12;11;
39955;PMS5003;25631;51.516;-0.470;2023-05-24T02:47:28;14;13;
39955;PMS5003;25631;51.516;-0.470;2023-05-24T02:50:05;14;14;
39955;PMS5003;25631;51.516;-0.470;2023-05-24T02:52:42;14;14;
39955;PMS5003;25631;51.516;-0.470;2023-05-24T02:55:19;15;15;
39955;PMS5003;25631;51.516;-0.470;2023-05-24T02:57:55;16;15;
39955;PMS5003;25631;51.516;-0.470;2023-05-24T03:00:32;16;15;
39955;PMS5003;25631;51.516;-0.470;2023-05-24T03:03:09;15;15;
39955;PMS5003;25631;51.516;-0.470;2023-05-24T03:05:45;20;18;
39955;PMS5003;25631;51.516;-0.470;2023-05-24T03:08:22;21;20;
39955;PMS5003;25631;51.516;-0.470;2023-05-24T03:10:58;20;18;
39955;PMS5003;25631;51.516;-0.470;2023-05-24T03:13:35;21;19;
39955;PMS5003;25631;51.516;-0.470;2023-05-24T03:16:11;22;19;
39955;PMS5003;25631;51.516;-0.470;2023-05-24T03:18:48;17;17;
39955;PMS5003;25631;51.516;-0.470;2023-05-24T03:21:24;15;15;
39955;PMS5003;25631;51.516;-0.470;2023-05-24T03:24:01;24;24;
39955;PMS5003;25631;51.516;-0.470;2023-05-24T03:26:37;24;23;
39955;PMS5003;25631;51.516;-0.470;2023-05-24T03:29:14;24;23;
39955;PMS5003;25631;51.516;-0.470;2023-05-24T03:31:50;22;21;
39955;PMS5003;25631;51.516;-0.470;2023-05-24T03:34:27;22;21;
39955;PMS5003;25631;51.516;-0.470;2023-05-24T03:37:03;25;24;
39955;PMS5003;25631;51.516;-0.470;2023-05-24T03:39:40;30;29;
39955;PMS5003;25631;51.516;-0.470;2023-05-24T03:42:17;33;32;
39955;PMS5003;25631;51.516;-0.470;2023-05-24T03:44:53;29;28;
39955;PMS5003;25631;51.516;-0.470;2023-05-24T03:47:30;29;27;
39955;PMS5003;25631;51.516;-0.470;2023-05-24T03:50:07;32;31;
39955;PMS5003;25631;51.516;-0.470;2023-05-24T03:52:44;31;29;
39955;PMS5003;25631;51.516;-0.470;2023-05-24T03:55:20;31;29;
39955;PMS5003;25631;51.516;-0.470;2023-05-24T03:57:57;29;29;
39955;PMS5003;25631;51.516;-0.470;2023-05-24T04:00:34;29;29;
39955;PMS5003;25631;51.516;-0.470;2023-05-24T04:03:10;29;29;
39955;PMS5003;25631;51.516;-0.470;2023-05-24T04:05:46;26;25;
39955;PMS5003;25631;51.516;-0.470;2023-05-24T04:08:23;31;30;
39955;PMS5003;25631;51.516;-0.470;2023-05-24T04:10:59;32;31;
39955;PMS5003;25631;51.516;-0.470;2023-05-24T04:13:36;30;30;
39955;PMS5003;25631;51.516;-0.470;2023-05-24T04:16:12;30;29;
39955;PMS5003;25631;51.516;-0.470;2023-05-24T04:18:49;31;29;
39955;PMS5003;25631;51.516;-0.470;2023-05-24T04:21:25;36;35;
39955;PMS5003;25631;51.516;-0.470;2023-05-24T04:24:03;29;29;
39955;PMS5003;25631;51.516;-0.470;2023-05-24T04:26:40;31;29;
39955;PMS5003;25631;51.516;-0.470;2023-05-24T04:29:16;34;32;
39955;PMS5003;25631;51.516;-0.470;2023-05-24T04:31:53;23;22;
39955;PMS5003;25631;51.516;-0.470;2023-05-24T04:34:29;22;21;
39955;PMS5003;25631;51.516;-0.470;2023-05-24T04:37:06;22;21;
39955;PMS5003;25631;51.516;-0.470;2023-05-24T04:39:43;23;22;
39955;PMS5003;25631;51.516;-0.470;2023-05-24T04:42:20;23;22;
39955;PMS5003;25631;51.516;-0.470;2023-05-24T04:44:57;21;19;
39955;PMS5003;25631;51.516;-0.470;2023-05-24T04:47:33;27;25;
39955;PMS5003;25631;51.516;-0.470;2023-05-24T04:50:10;28;26;
39955;PMS5003;25631;51.516;-0.470;2023-05-24T04:52:46;22;22;
39955;PMS5003;25631;51.516;-0.470;2023-05-24T04:55:23;22;21;
39955;PMS5003;25631;51.516;-0.470;2023-05-24T04:58:00;20;19;
39955;PMS5003;25631;51.516;-0.470;2023-05-24T05:00:37;21;20;
39955;PMS5003;25631;51.516;-0.470;2023-05-24T05:03:13;22;21;
39955;PMS5003;25631;51.516;-0.470;2023-05-24T05:05:50;30;29;
39955;PMS5003;25631;51.516;-0.470;2023-05-24T05:08:26;26;25;
39955;PMS5003;25631;51.516;-0.470;2023-05-24T05:11:03;23;22;
39955;PMS5003;25631;51.516;-0.470;2023-05-24T05:13:39;21;18;
39955;PMS5003;25631;51.516;-0.470;2023-05-24T05:16:16;21;18;
39955;PMS5003;25631;51.516;-0.470;2023-05-24T05:18:52;25;24;
39955;PMS5003;25631;51.516;-0.470;2023-05-24T05:21:29;31;30;
39955;PMS5003;25631;51.516;-0.470;2023-05-24T05:24:06;27;26;
39955;PMS5003;25631;51.516;-0.470;2023-05-24T05:26:42;22;20;
39955;PMS5003;25631;51.516;-0.470;2023-05-24T05:29:19;22;20;
39955;PMS5003;25631;51.516;-0.470;2023-05-24T05:31:55;21;20;
39955;PMS5003;25631;51.516;-0.470;2023-05-24T05:34:32;22;20;
39955;PMS5003;25631;51.516;-0.470;2023-05-24T05:37:09;22;20;
39955;PMS5003;25631;51.516;-0.470;2023-05-24T05:39:46;24;21;
39955;PMS5003;25631;51.516;-0.470;2023-05-24T05:42:22;23;20;
39955;PMS5003;25631;51.516;-0.470;2023-05-24T05:44:58;22;20;
39955;PMS5003;25631;51.516;-0.470;2023-05-24T05:47:35;20;20;
39955;PMS5003;25631;51.516;-0.470;2023-05-24T05:50:11;19;18;
39955;PMS5003;25631;51.516;-0.470;2023-05-24T05:52:48;24;22;
39955;PMS5003;25631;51.516;-0.470;2023-05-24T05:55:24;21;20;
39955;PMS5003;25631;51.516;-0.470;2023-05-24T05:58:01;20;20;
39955;PMS5003;25631;51.516;-0.470;2023-05-24T06:00:38;19;19;
39955;PMS5003;25631;51.516;-0.470;2023-05-24T06:03:15;17;17;
39955;PMS5003;25631;51.516;-0.470;2023-05-24T06:05:52;19;19;
39955;PMS5003;25631;51.516;-0.470;2023-05-24T06:08:28;21;20;
39955;PMS5003;25631;51.516;-0.470;2023-05-24T06:11:05;22;20;
39955;PMS5003;25631;51.516;-0.470;2023-05-24T06:13:41;22;22;
39955;PMS5003;25631;51.516;-0.470;2023-05-24T06:16:18;21;21;
39955;PMS5003;25631;51.516;-0.470;2023-05-24T06:18:54;19;18;
39955;PMS5003;25631;51.516;-0.470;2023-05-24T06:21:31;21;18;
39955;PMS5003;25631;51.516;-0.470;2023-05-24T06:24:07;21;18;
39955;PMS5003;25631;51.516;-0.470;2023-05-24T06:26:44;23;22;
39955;PMS5003;25631;51.516;-0.470;2023-05-24T06:29:20;22;21;
39955;PMS5003;25631;51.516;-0.470;2023-05-24T06:31:57;21;21;
39955;PMS5003;25631;51.516;-0.470;2023-05-24T06:34:34;21;21;
39955;PMS5003;25631;51.516;-0.470;2023-05-24T06:37:10;18;18;
39955;PMS5003;25631;51.516;-0.470;2023-05-24T06:39:47;18;15;
39955;PMS5003;25631;51.516;-0.470;2023-05-24T06:42:23;20;17;
39955;PMS5003;25631;51.516;-0.470;2023-05-24T06:45:00;19;16;
39955;PMS5003;25631;51.516;-0.470;2023-05-24T06:47:36;16;15;
39955;PMS5003;25631;51.516;-0.470;2023-05-24T06:50:13;23;21;
39955;PMS5003;25631;51.516;-0.470;2023-05-24T06:52:49;16;14;
39955;PMS5003;25631;51.516;-0.470;2023-05-24T06:55:26;15;13;
39955;PMS5003;25631;51.516;-0.470;2023-05-24T06:58:02;15;13;
39955;PMS5003;25631;51.516;-0.470;2023-05-24T07:00:39;21;19;
39955;PMS5003;25631;51.516;-0.470;2023-05-24T07:03:16;19;18;
39955;PMS5003;25631;51.516;-0.470;2023-05-24T07:05:52;18;17;
39955;PMS5003;25631;51.516;-0.470;2023-05-24T07:08:28;16;16;
39955;PMS5003;25631;51.516;-0.470;2023-05-24T07:11:05;16;15;
39955;PMS5003;25631;51.516;-0.470;2023-05-24T07:13:41;16;15;
39955;PMS5003;25631;51.516;-0.470;2023-05-24T07:16:18;17;16;
39955;PMS5003;25631;51.516;-0.470;2023-05-24T07:18:55;17;16;
39955;PMS5003;25631;51.516;-0.470;2023-05-24T07:21:31;11;11;
39955;PMS5003;25631;51.516;-0.470;2023-05-24T07:24:08;12;12;
39955;PMS5003;25631;51.516;-0.470;2023-05-24T07:26:44;13;12;
39955;PMS5003;25631;51.516;-0.470;2023-05-24T07:29:21;12;11;
39955;PMS5003;25631;51.516;-0.470;2023-05-24T07:31:57;12;11;
39955;PMS5003;25631;51.516;-0.470;2023-05-24T07:34:34;16;15;
39955;PMS5003;25631;51.516;-0.470;2023-05-24T07:37:10;16;15;
39955;PMS5003;25631;51.516;-0.470;2023-05-24T07:39:47;11;11;
39955;PMS5003;25631;51.516;-0.470;2023-05-24T07:42:23;12;11;
39955;PMS5003;25631;51.516;-0.470;2023-05-24T07:45:00;14;13;
39955;PMS5003;25631;51.516;-0.470;2023-05-24T07:47:37;20;17;
39955;PMS5003;25631;51.516;-0.470;2023-05-24T07:50:14;18;16;
39955;PMS5003;25631;51.516;-0.470;2023-05-24T07:52:51;17;15;
39955;PMS5003;25631;51.516;-0.470;2023-05-24T07:55:28;14;13;
39955;PMS5003;25631;51.516;-0.470;2023-05-24T07:58:04;14;14;
39955;PMS5003;25631;51.516;-0.470;2023-05-24T08:00:41;15;12;
39955;PMS5003;25631;51.516;-0.470;2023-05-24T08:03:17;16;13;
39955;PMS5003;25631;51.516;-0.470;2023-05-24T08:05:53;15;13;
39955;PMS5003;25631;51.516;-0.470;2023-05-24T08:08:30;16;14;
39955;PMS5003;25631;51.516;-0.470;2023-05-24T08:11:06;14;13;
39955;PMS5003;25631;51.516;-0.470;2023-05-24T08:13:43;16;16;
39955;PMS5003;25631;51.516;-0.470;2023-05-24T08:16:19;15;15;
39955;PMS5003;25631;51.516;-0.470;2023-05-24T08:18:56;15;15;
39955;PMS5003;25631;51.516;-0.470;2023-05-24T08:21:33;16;15;
39955;PMS5003;25631;51.516;-0.470;2023-05-24T08:24:09;17;17;
39955;PMS5003;25631;51.516;-0.470;2023-05-24T08:29:00;17;16;
39955;PMS5003;25631;51.516;-0.470;2023-05-24T08:31:37;19;18;
39955;PMS5003;25631;51.516;-0.470;2023-05-24T08:34:13;22;20;
39955;PMS5003;25631;51.516;-0.470;2023-05-24T08:36:49;20;19;
39955;PMS5003;25631;51.516;-0.470;2023-05-24T08:39:26;20;18;
39955;PMS5003;25631;51.516;-0.470;2023-05-24T08:42:02;23;21;
39955;PMS5003;25631;51.516;-0.470;2023-05-24T08:44:44;22;21;
39955;PMS5003;25631;51.516;-0.470;2023-05-24T08:47:23;15;15;
39955;PMS5003;25631;51.516;-0.470;2023-05-24T08:50:01;15;15;
39955;PMS5003;25631;51.516;-0.470;2023-05-24T08:52:39;15;15;
39955;PMS5003;25631;51.516;-0.470;2023-05-24T08:55:17;19;17;
39955;PMS5003;25631;51.516;-0.470;2023-05-24T08:57:54;17;16;
39955;PMS5003;25631;51.516;-0.470;2023-05-24T09:00:31;16;15;
39955;PMS5003;25631;51.516;-0.470;2023-05-24T09:03:07;18;16;
39955;PMS5003;25631;51.516;-0.470;2023-05-24T09:05:45;17;16;
39955;PMS5003;25631;51.516;-0.470;2023-05-24T09:08:22;16;16;
39955;PMS5003;25631;51.516;-0.470;2023-05-24T09:11:00;16;16;
39955;PMS5003;25631;51.516;-0.470;2023-05-24T09:13:37;17;16;
39955;PMS5003;25631;51.516;-0.470;2023-05-24T09:16:14;20;17;
39955;PMS5003;25631;51.516;-0.470;2023-05-24T09:18:51;18;17;
39955;PMS5003;25631;51.516;-0.470;2023-05-24T09:21:28;16;15;
39955;PMS5003;25631;51.516;-0.470;2023-05-24T09:24:06;15;14;
39955;PMS5003;25631;51.516;-0.470;2023-05-24T09:26:43;12;12;
39955;PMS5003;25631;51.516;-0.470;2023-05-24T09:29:21;10;10;
39955;PMS5003;25631;51.516;-0.470;2023-05-24T09:31:57;11;11;
39955;PMS5003;25631;51.516;-0.470;2023-05-24T09:34:38;11;11;
39955;PMS5003;25631;51.516;-0.470;2023-05-24T09:37:15;11;10;
39955;PMS5003;25631;51.516;-0.470;2023-05-24T09:39:53;13;12;
39955;PMS5003;25631;51.516;-0.470;2023-05-24T09:42:29;10;9;
39955;PMS5003;25631;51.516;-0.470;2023-05-24T09:45:06;12;11;
39955;PMS5003;25631;51.516;-0.470;2023-05-24T09:47:43;13;11;
39955;PMS5003;25631;51.516;-0.470;2023-05-24T09:50:20;9;8;
39955;PMS5003;25631;51.516;-0.470;2023-05-24T09:52:56;10;9;
39955;PMS5003;25631;51.516;-0.470;2023-05-24T09:55:34;8;8;
39955;PMS5003;25631;51.516;-0.470;2023-05-24T09:58:12;7;7;
39955;PMS5003;25631;51.516;-0.470;2023-05-24T10:00:48;9;9;
39955;PMS5003;25631;51.516;-0.470;2023-05-24T10:03:26;7;6;
39955;PMS5003;25631;51.516;-0.470;2023-05-24T10:06:03;8;7;
39955;PMS5003;25631;51.516;-0.470;2023-05-24T10:08:41;8;7;
39955;PMS5003;25631;51.516;-0.470;2023-05-24T10:11:18;7;6;
39955;PMS5003;25631;51.516;-0.470;2023-05-24T10:13:54;8;7;
39955;PMS5003;25631;51.516;-0.470;2023-05-24T10:16:31;9;9;
39955;PMS5003;25631;51.516;-0.470;2023-05-24T10:19:07;8;7;
39955;PMS5003;25631;51.516;-0.470;2023-05-24T10:21:44;7;6;
39955;PMS5003;25631;51.516;-0.470;2023-05-24T10:24:22;10;9;
39955;PMS5003;25631;51.516;-0.470;2023-05-24T10:27:01;9;8;
39955;PMS5003;25631;51.516;-0.470;2023-05-24T10:29:45;15;14;
39955;PMS5003;25631;51.516;-0.470;2023-05-24T10:32:32;15;13;
39955;PMS5003;25631;51.516;-0.470;2023-05-24T10:35:10;14;13;
39955;PMS5003;25631;51.516;-0.470;2023-05-24T10:37:48;14;13;
39955;PMS5003;25631;51.516;-0.470;2023-05-24T10:40:25;15;14;
39955;PMS5003;25631;51.516;-0.470;2023-05-24T10:43:03;14;13;
39955;PMS5003;25631;51.516;-0.470;2023-05-24T10:45:39;17;15;
39955;PMS5003;25631;51.516;-0.470;2023-05-24T10:49:21;12;11;
39955;PMS5003;25631;51.516;-0.470;2023-05-24T10:52:01;19;17;
39955;PMS5003;25631;51.516;-0.470;2023-05-24T10:54:56;17;17;
39955;PMS5003;25631;51.516;-0.470;2023-05-24T10:57:37;19;18;
39955;PMS5003;25631;51.516;-0.470;2023-05-24T11:00:25;17;16;
39955;PMS5003;25631;51.516;-0.470;2023-05-24T11:03:06;11;11;
39955;PMS5003;25631;51.516;-0.470;2023-05-24T11:05:48;11;11;
39955;PMS5003;25631;51.516;-0.470;2023-05-24T11:08:29;12;12;
39955;PMS5003;25631;51.516;-0.470;2023-05-24T11:11:07;13;12;
39955;PMS5003;25631;51.516;-0.470;2023-05-24T11:13:46;14;12;
39955;PMS5003;25631;51.516;-0.470;2023-05-24T11:16:39;16;15;
39955;PMS5003;25631;51.516;-0.470;2023-05-24T11:19:16;15;14;
39955;PMS5003;25631;51.516;-0.470;2023-05-24T11:21:55;14;14;
39955;PMS5003;25631;51.516;-0.470;2023-05-24T11:24:32;14;13;
39955;PMS5003;25631;51.516;-0.470;2023-05-24T11:27:10;15;14;
39955;PMS5003;25631;51.516;-0.470;2023-05-24T11:29:47;11;11;
39955;PMS5003;25631;51.516;-0.470;2023-05-24T11:32:24;10;9;
39955;PMS5003;25631;51.516;-0.470;2023-05-24T11:35:00;10;9;
39955;PMS5003;25631;51.516;-0.470;2023-05-24T11:37:37;8;8;
39955;PMS5003;25631;51.516;-0.470;2023-05-24T11:40:13;10;9;
39955;PMS5003;25631;51.516;-0.470;2023-05-24T11:42:50;8;7;
39955;PMS5003;25631;51.516;-0.470;2023-05-24T11:45:27;11;10;
39955;PMS5003;25631;51.516;-0.470;2023-05-24T11:48:04;10;10;
39955;PMS5003;25631;51.516;-0.470;2023-05-24T11:50:41;8;7;
39955;PMS5003;25631;51.516;-0.470;2023-05-24T11:53:19;7;7;
39955;PMS5003;25631;51.516;-0.470;2023-05-24T11:55:55;8;8;
39955;PMS5003;25631;51.516;-0.470;2023-05-24T12:01:24;7;7;
39955;PMS5003;25631;51.516;-0.470;2023-05-24T12:04:02;9;8;
39955;PMS5003;25631;51.516;-0.470;2023-05-24T12:06:41;9;8;
39955;PMS5003;25631;51.516;-0.470;2023-05-24T12:09:18;9;9;
39955;PMS5003;25631;51.516;-0.470;2023-05-24T12:11:54;7;7;
39955;PMS5003;25631;51.516;-0.470;2023-05-24T12:14:31;9;8;
39955;PMS5003;25631;51.516;-0.470;2023-05-24T12:17:13;5;5;
39955;PMS5003;25631;51.516;-0.470;2023-05-24T12:19:50;5;5;
39955;PMS5003;25631;51.516;-0.470;2023-05-24T12:22:26;4;4;
39955;PMS5003;25631;51.516;-0.470;2023-05-24T12:25:03;5;4;
39955;PMS5003;25631;51.516;-0.470;2023-05-24T12:27:42;5;4;
39955;PMS5003;25631;51.516;-0.470;2023-05-24T12:30:21;4;4;
39955;PMS5003;25631;51.516;-0.470;2023-05-24T12:32:58;7;7;
39955;PMS5003;25631;51.516;-0.470;2023-05-24T12:35:35;7;7;
39955;PMS5003;25631;51.516;-0.470;2023-05-24T12:38:12;10;9;
39955;PMS5003;25631;51.516;-0.470;2023-05-24T12:40:49;10;10;
39955;PMS5003;25631;51.516;-0.470;2023-05-24T12:43:26;10;10;
39955;PMS5003;25631;51.516;-0.470;2023-05-24T12:46:03;9;9;
39955;PMS5003;25631;51.516;-0.470;2023-05-24T12:48:40;10;10;
39955;PMS5003;25631;51.516;-0.470;2023-05-24T12:51:16;12;11;
39955;PMS5003;25631;51.516;-0.470;2023-05-24T12:53:53;11;10;
39955;PMS5003;25631;51.516;-0.470;2023-05-24T12:56:29;12;11;
39955;PMS5003;25631;51.516;-0.470;2023-05-24T12:59:06;15;13;
39955;PMS5003;25631;51.516;-0.470;2023-05-24T13:01:42;13;13;
39955;PMS5003;25631;51.516;-0.470;2023-05-24T13:04:20;14;13;
39955;PMS5003;25631;51.516;-0.470;2023-05-24T13:06:58;10;9;
39955;PMS5003;25631;51.516;-0.470;2023-05-24T13:09:34;10;9;
39955;PMS5003;25631;51.516;-0.470;2023-05-24T13:12:11;11;9;
39955;PMS5003;25631;51.516;-0.470;2023-05-24T13:14:48;11;10;
39955;PMS5003;25631;51.516;-0.470;2023-05-24T13:17:24;10;8;
39955;PMS5003;25631;51.516;-0.470;2023-05-24T13:20:02;12;10;
39955;PMS5003;25631;51.516;-0.470;2023-05-24T13:22:40;10;10;
39955;PMS5003;25631;51.516;-0.470;2023-05-24T13:25:17;8;8;
39955;PMS5003;25631;51.516;-0.470;2023-05-24T13:27:53;9;9;
39955;PMS5003;25631;51.516;-0.470;2023-05-24T13:30:30;8;8;
39955;PMS5003;25631;51.516;-0.470;2023-05-24T13:33:06;4;4;
39955;PMS5003;25631;51.516;-0.470;2023-05-24T13:35:43;4;4;
39955;PMS5003;25631;51.516;-0.470;2023-05-24T13:38:19;4;4;
39955;PMS5003;25631;51.516;-0.470;2023-05-24T13:40:56;7;6;
39955;PMS5003;25631;51.516;-0.470;2023-05-24T13:43:32;7;7;
39955;PMS5003;25631;51.516;-0.470;2023-05-24T13:46:09;5;5;
39955;PMS5003;25631;51.516;-0.470;2023-05-24T13:48:46;4;4;
39955;PMS5003;25631;51.516;-0.470;2023-05-24T13:51:22;6;5;
39955;PMS5003;25631;51.516;-0.470;2023-05-24T13:53:59;4;4;
39955;PMS5003;25631;51.516;-0.470;2023-05-24T13:56:36;4;4;
39955;PMS5003;25631;51.516;-0.470;2023-05-24T13:59:13;8;7;
39955;PMS5003;25631;51.516;-0.470;2023-05-24T14:01:50;8;7;
39955;PMS5003;25631;51.516;-0.470;2023-05-24T14:04:27;7;7;
39955;PMS5003;25631;51.516;-0.470;2023-05-24T14:07:03;9;9;
39955;PMS5003;25631;51.516;-0.470;2023-05-24T14:09:40;8;8;
39955;PMS5003;25631;51.516;-0.470;2023-05-24T14:12:16;8;8;
39955;PMS5003;25631;51.516;-0.470;2023-05-24T14:14:53;10;9;
39955;PMS5003;25631;51.516;-0.470;2023-05-24T14:17:29;8;7;
39955;PMS5003;25631;51.516;-0.470;2023-05-24T14:20:07;8;8;
39955;PMS5003;25631;51.516;-0.470;2023-05-24T14:22:44;8;8;
39955;PMS5003;25631;51.516;-0.470;2023-05-24T14:25:20;7;7;
39955;PMS5003;25631;51.516;-0.470;2023-05-24T14:27:56;8;8;
39955;PMS5003;25631;51.516;-0.470;2023-05-24T14:30:33;8;8;
39955;PMS5003;25631;51.516;-0.470;2023-05-24T14:33:10;9;8;
39955;PMS5003;25631;51.516;-0.470;2023-05-24T14:35:47;8;8;
39955;PMS5003;25631;51.516;-0.470;2023-05-24T14:38:24;10;9;
39955;PMS5003;25631;51.516;-0.470;2023-05-24T14:41:00;13;12;
39955;PMS5003;25631;51.516;-0.470;2023-05-24T14:43:37;13;11;
39955;PMS5003;25631;51.516;-0.470;2023-05-24T14:46:13;17;16;
39955;PMS5003;25631;51.516;-0.470;2023-05-24T14:48:50;14;14;
39955;PMS5003;25631;51.516;-0.470;2023-05-24T14:51:26;15;14;
39955;PMS5003;25631;51.516;-0.470;2023-05-24T14:54:03;19;18;
39955;PMS5003;25631;51.516;-0.470;2023-05-24T14:56:39;19;18;
39955;PMS5003;25631;51.516;-0.470;2023-05-24T14:59:16;17;17;
39955;PMS5003;25631;51.516;-0.470;2023-05-24T15:01:52;17;16;
39955;PMS5003;25631;51.516;-0.470;2023-05-24T15:04:29;17;17;
39955;PMS5003;25631;51.516;-0.470;2023-05-24T15:07:06;23;22;
39955;PMS5003;25631;51.516;-0.470;2023-05-24T15:09:42;23;22;
39955;PMS5003;25631;51.516;-0.470;2023-05-24T15:12:19;22;21;
39955;PMS5003;25631;51.516;-0.470;2023-05-24T15:14:56;20;20;
39955;PMS5003;25631;51.516;-0.470;2023-05-24T15:17:33;18;18;
39955;PMS5003;25631;51.516;-0.470;2023-05-24T15:20:10;22;21;
39955;PMS5003;25631;51.516;-0.470;2023-05-24T15:22:47;20;18;
39955;PMS5003;25631;51.516;-0.470;2023-05-24T15:25:24;20;19;
39955;PMS5003;25631;51.516;-0.470;2023-05-24T15:28:01;24;22;
39955;PMS5003;25631;51.516;-0.470;2023-05-24T15:30:37;25;24;
39955;PMS5003;25631;51.516;-0.470;2023-05-24T15:33:14;24;24;
39955;PMS5003;25631;51.516;-0.470;2023-05-24T15:35:51;32;31;
39955;PMS5003;25631;51.516;-0.470;2023-05-24T15:38:28;30;29;
39955;PMS5003;25631;51.516;-0.470;2023-05-24T15:41:05;32;30;
39955;PMS5003;25631;51.516;-0.470;2023-05-24T15:43:41;32;30;
39955;PMS5003;25631;51.516;-0.470;2023-05-24T15:46:19;32;31;
39955;PMS5003;25631;51.516;-0.470;2023-05-24T15:48:56;31;29;
39955;PMS5003;25631;51.516;-0.470;2023-05-24T15:51:33;30;28;
39955;PMS5003;25631;51.516;-0.470;2023-05-24T15:54:10;29;28;
39955;PMS5003;25631;51.516;-0.470;2023-05-24T15:56:47;28;26;
39955;PMS5003;25631;51.516;-0.470;2023-05-24T15:59:23;29;28;
39955;PMS5003;25631;51.516;-0.470;2023-05-24T16:02:00;29;28;
39955;PMS5003;25631;51.516;-0.470;2023-05-24T16:04:37;31;30;
39955;PMS5003;25631;51.516;-0.470;2023-05-24T16:07:13;37;34;
39955;PMS5003;25631;51.516;-0.470;2023-05-24T16:09:50;21;21;
39955;PMS5003;25631;51.516;-0.470;2023-05-24T16:12:27;22;22;
39955;PMS5003;25631;51.516;-0.470;2023-05-24T16:15:03;27;25;
39955;PMS5003;25631;51.516;-0.470;2023-05-24T16:17:40;26;24;
39955;PMS5003;25631;51.516;-0.470;2023-05-24T16:20:17;26;23;
39955;PMS5003;25631;51.516;-0.470;2023-05-24T16:22:53;24;23;
39955;PMS5003;25631;51.516;-0.470;2023-05-24T16:25:30;22;21;
39955;PMS5003;25631;51.516;-0.470;2023-05-24T16:28:07;26;26;
39955;PMS5003;25631;51.516;-0.470;2023-05-24T16:30:43;25;25;
39955;PMS5003;25631;51.516;-0.470;2023-05-24T16:33:20;24;24;
39955;PMS5003;25631;51.516;-0.470;2023-05-24T16:35:56;22;21;
39955;PMS5003;25631;51.516;-0.470;2023-05-24T16:38:33;21;20;
39955;PMS5003;25631;51.516;-0.470;2023-05-24T16:41:09;21;19;
39955;PMS5003;25631;51.516;-0.470;2023-05-24T16:43:46;21;19;
39955;PMS5003;25631;51.516;-0.470;2023-05-24T16:46:22;20;19;
39955;PMS5003;25631;51.516;-0.470;2023-05-24T16:48:59;19;19;
39955;PMS5003;25631;51.516;-0.470;2023-05-24T16:51:35;21;21;
39955;PMS5003;25631;51.516;-0.470;2023-05-24T16:54:12;25;25;
39955;PMS5003;25631;51.516;-0.470;2023-05-24T16:56:48;22;22;
39955;PMS5003;25631;51.516;-0.470;2023-05-24T16:59:25;18;18;
39955;PMS5003;25631;51.516;-0.470;2023-05-24T17:02:02;21;20;
39955;PMS5003;25631;51.516;-0.470;2023-05-24T17:04:38;19;19;
39955;PMS5003;25631;51.516;-0.470;2023-05-24T17:07:14;20;19;
39955;PMS5003;25631;51.516;-0.470;2023-05-24T17:09:51;17;17;
39955;PMS5003;25631;51.516;-0.470;2023-05-24T17:12:28;20;20;
39955;PMS5003;25631;51.516;-0.470;2023-05-24T17:15:04;21;21;
39955;PMS5003;25631;51.516;-0.470;2023-05-24T17:17:41;19;18;
39955;PMS5003;25631;51.516;-0.470;2023-05-24T17:20:18;18;17;